Time;durP1;ratioP1;P1;durP2;ratioP2;P2;SDS_P1;SDS_P2;PMS_P1;PMS_P2;Temp;Humidity;BMP_temperature;BMP_pressure;BME280_temperature;BME280_humidity;BME280_pressure;Samples;Min_cycle;Max_cycle;Signal;HPM_P1;HPM_P2
2022/03/20 00:00:16;;;;;;;12.37;7.47;;;3.00;88.90;;;;;;5017470;28;20202;-89
2022/03/20 00:02:42;;;;;;;18.53;6.80;;;2.90;89.10;;;;;;5017578;28;20176;-89
2022/03/20 00:05:08;;;;;;;10.50;6.87;;;2.90;89.10;;;;;;5016792;28;20552;-92
2022/03/20 00:07:34;;;;;;;11.30;8.27;;;2.90;89.10;;;;;;5017305;28;20209;-91
2022/03/20 00:10:01;;;;;;;17.33;7.97;;;2.90;89.20;;;;;;5035112;28;20615;-92
2022/03/20 00:12:27;;;;;;;13.80;7.67;;;2.80;89.20;;;;;;5017031;28;20208;-91
2022/03/20 00:14:53;;;;;;;12.60;7.07;;;2.80;89.20;;;;;;5034864;28;20273;-92
2022/03/20 00:17:20;;;;;;;15.47;8.53;;;2.80;89.20;;;;;;5034682;28;20303;-91
2022/03/20 00:19:46;;;;;;;17.77;9.93;;;2.80;89.10;;;;;;5035039;28;20199;-91
2022/03/20 00:22:12;;;;;;;14.47;8.70;;;2.80;89.10;;;;;;5017194;28;20253;-92
2022/03/20 00:24:40;;;;;;;19.17;10.03;;;2.80;89.20;;;;;;5034656;28;20202;-91
2022/03/20 00:27:12;;;;;;;15.47;9.80;;;2.80;89.10;;;;;;5016912;28;20195;-91
2022/03/20 00:29:38;;;;;;;10.30;6.10;;;2.70;89.10;;;;;;5017065;28;20177;-91
2022/03/20 00:32:08;;;;;;;15.83;10.53;;;2.80;89.20;;;;;;5034460;28;20719;-91
2022/03/20 00:34:35;;;;;;;14.77;10.40;;;2.70;89.10;;;;;;5034737;28;20167;-91
2022/03/20 00:37:01;;;;;;;15.67;10.60;;;2.60;89.20;;;;;;5034225;28;20202;-92
2022/03/20 00:39:26;;;;;;;16.20;9.87;;;2.60;89.30;;;;;;5034828;28;20201;-91
2022/03/20 00:41:52;;;;;;;16.33;10.13;;;2.60;89.40;;;;;;5058729;22;20229;-85
2022/03/20 00:44:17;;;;;;;25.57;12.00;;;2.50;89.30;;;;;;5034506;28;20175;-85
2022/03/20 00:46:43;;;;;;;18.60;12.20;;;2.50;89.30;;;;;;5016763;28;20311;-85
2022/03/20 00:49:09;;;;;;;20.90;12.40;;;2.40;89.40;;;;;;5034287;28;20192;-86
2022/03/20 00:51:36;;;;;;;16.53;9.83;;;2.40;89.60;;;;;;5016591;28;20297;-86
2022/03/20 00:54:01;;;;;;;18.63;11.57;;;2.50;89.70;;;;;;5016781;28;20736;-85
2022/03/20 00:56:27;;;;;;;17.77;10.07;;;2.40;89.60;;;;;;5016540;28;20179;-86
2022/03/20 00:58:53;;;;;;;24.87;11.87;;;2.30;89.60;;;;;;5034363;28;20209;-85
2022/03/20 01:01:18;;;;;;;19.30;12.03;;;2.30;89.80;;;;;;5016535;28;20562;-85
2022/03/20 01:03:44;;;;;;;25.47;13.10;;;2.30;89.70;;;;;;5034306;28;20161;-86
2022/03/20 01:06:11;;;;;;;15.97;10.50;;;2.30;89.80;;;;;;5017321;28;20169;-85
2022/03/20 01:08:38;;;;;;;26.67;14.27;;;2.30;89.80;;;;;;5034053;28;20172;-86
2022/03/20 01:11:07;;;;;;;18.47;10.60;;;2.30;89.80;;;;;;5034112;28;20658;-86
2022/03/20 01:13:34;;;;;;;22.30;12.43;;;2.30;90.10;;;;;;5033805;28;20171;-86
2022/03/20 01:16:00;;;;;;;25.57;15.63;;;2.30;90.20;;;;;;5015353;28;20182;-86
2022/03/20 01:18:26;;;;;;;24.37;15.20;;;2.30;90.20;;;;;;5015875;28;20625;-86
2022/03/20 01:20:53;;;;;;;22.47;13.33;;;2.30;90.10;;;;;;5016031;28;20249;-84
2022/03/20 01:23:21;;;;;;;17.87;8.50;;;2.30;90.30;;;;;;5033917;28;20191;-85
2022/03/20 01:25:50;;;;;;;25.40;14.03;;;2.30;90.40;;;;;;5033648;28;20308;-85
2022/03/20 01:28:17;;;;;;;26.97;16.50;;;2.30;90.30;;;;;;5033581;28;20625;-85
2022/03/20 01:30:43;;;;;;;23.40;14.93;;;2.30;90.40;;;;;;5015786;28;20203;-84
2022/03/20 01:33:08;;;;;;;26.50;15.63;;;2.30;90.30;;;;;;5015637;28;20174;-85
2022/03/20 01:35:35;;;;;;;20.83;15.63;;;2.20;90.40;;;;;;5016994;28;20186;-85
2022/03/20 01:38:02;;;;;;;22.70;13.97;;;2.20;90.40;;;;;;5016528;28;20495;-85
2022/03/20 01:40:28;;;;;;;26.13;16.27;;;2.20;90.50;;;;;;5015407;28;20241;-85
2022/03/20 01:42:53;;;;;;;25.20;17.00;;;2.20;90.60;;;;;;5015757;28;20202;-84
2022/03/20 01:45:22;;;;;;;26.67;17.27;;;2.10;90.50;;;;;;5033855;28;20174;-86
2022/03/20 01:47:49;;;;;;;22.87;15.13;;;2.10;90.60;;;;;;5033429;28;20624;-86
2022/03/20 01:50:21;;;;;;;26.67;17.27;;;2.00;90.70;;;;;;5015909;28;20184;-85
2022/03/20 01:52:48;;;;;;;25.33;16.77;;;2.00;90.80;;;;;;5015768;28;20233;-87
2022/03/20 01:55:15;;;;;;;28.23;17.00;;;1.90;90.80;;;;;;5015740;28;20182;-87
2022/03/20 01:57:44;;;;;;;33.03;17.73;;;1.90;90.90;;;;;;5033395;28;20184;-87
2022/03/20 02:00:11;;;;;;;30.50;16.70;;;1.90;91.00;;;;;;5015405;28;20680;-87
2022/03/20 02:02:36;;;;;;;32.67;18.73;;;1.90;91.00;;;;;;5015497;28;20195;-87
2022/03/20 02:05:04;;;;;;;34.37;17.90;;;1.80;91.00;;;;;;5033098;28;20179;-87
2022/03/20 02:07:34;;;;;;;25.93;16.87;;;1.80;91.00;;;;;;5015410;28;20183;-87
2022/03/20 02:10:00;;;;;;;27.13;17.70;;;1.80;91.20;;;;;;5015372;28;20185;-87
2022/03/20 02:12:26;;;;;;;28.70;18.83;;;1.80;91.10;;;;;;5015305;28;20232;-88
2022/03/20 02:14:53;;;;;;;22.80;13.97;;;1.80;91.20;;;;;;5015555;28;20781;-87
2022/03/20 02:17:19;;;;;;;32.63;19.17;;;1.90;91.40;;;;;;5015444;28;20191;-87
2022/03/20 02:19:46;;;;;;;28.03;18.70;;;1.90;91.20;;;;;;5015310;28;20204;-87
2022/03/20 02:22:11;;;;;;;27.57;17.00;;;1.80;91.20;;;;;;5015254;28;20208;-88
2022/03/20 02:24:44;;;;;;;24.63;16.27;;;1.90;91.20;;;;;;5015499;28;20180;-87
2022/03/20 02:27:24;;;;;;;25.57;16.73;;;1.90;91.30;;;;;;5016194;28;20194;-88
2022/03/20 02:30:01;;;;;;;23.03;14.60;;;1.90;91.30;;;;;;5019265;28;20628;-87
2022/03/20 02:32:28;;;;;;;22.83;14.00;;;1.80;91.20;;;;;;5036681;28;20835;-87
2022/03/20 02:35:00;;;;;;;37.13;18.63;;;1.90;91.30;;;;;;5019000;28;20632;-88
2022/03/20 02:37:26;;;;;;;27.77;17.43;;;1.90;91.20;;;;;;5019187;28;20307;-88
2022/03/20 02:39:56;;;;;;;28.73;17.50;;;1.90;91.30;;;;;;5018968;28;20285;-88
2022/03/20 02:42:23;;;;;;;25.50;15.83;;;1.90;91.30;;;;;;5018799;28;20694;-88
2022/03/20 02:45:03;;;;;;;27.77;18.33;;;1.90;91.20;;;;;;5018906;28;20207;-88
2022/03/20 02:47:32;;;;;;;30.50;16.97;;;1.80;91.10;;;;;;5018910;28;20180;-87
2022/03/20 02:50:00;;;;;;;30.90;18.57;;;1.80;91.10;;;;;;5036547;28;20639;-88
2022/03/20 02:52:48;;;;;;;31.27;17.03;;;1.80;91.10;;;;;;5018741;28;20204;-88
2022/03/20 02:55:19;;;;;;;26.87;15.37;;;1.80;91.10;;;;;;5018794;28;20184;-88
2022/03/20 02:57:47;;;;;;;31.93;20.70;;;1.80;91.10;;;;;;5036382;28;20251;-88
2022/03/20 03:00:14;;;;;;;35.03;18.60;;;1.80;91.00;;;;;;5018541;28;20204;-88
2022/03/20 03:02:45;;;;;;;24.07;16.03;;;1.80;91.10;;;;;;5018601;28;20695;-89
2022/03/20 03:05:16;;;;;;;26.10;16.40;;;1.80;91.00;;;;;;5036219;28;20633;-88
2022/03/20 03:13:15;;;;;;;28.10;18.73;;;1.80;90.90;;;;;;5036672;28;20177;-88
2022/03/20 03:15:41;;;;;;;32.77;17.90;;;1.80;90.80;;;;;;5035947;28;20300;-88
2022/03/20 03:18:06;;;;;;;27.80;18.50;;;1.80;90.60;;;;;;5018294;28;20227;-88
2022/03/20 03:20:33;;;;;;;25.17;16.47;;;1.70;90.60;;;;;;5018145;28;20193;-88
2022/03/20 03:22:59;;;;;;;25.30;15.50;;;1.70;90.60;;;;;;5035901;28;20179;-88
2022/03/20 03:25:25;;;;;;;28.07;15.30;;;1.70;90.60;;;;;;5036071;28;20177;-88
2022/03/20 03:27:52;;;;;;;27.07;16.53;;;1.70;90.60;;;;;;5035850;28;20175;-88
2022/03/20 03:30:18;;;;;;;25.30;14.43;;;1.80;90.50;;;;;;5018132;28;20173;-88
2022/03/20 03:32:43;;;;;;;23.40;13.57;;;1.80;90.40;;;;;;5017972;28;20207;-88
2022/03/20 03:37:55;;;;;;;27.00;16.93;;;1.80;90.10;;;;;;5036084;28;20590;-87
2022/03/20 03:40:21;;;;;;;30.60;17.57;;;1.80;90.00;;;;;;5016774;28;20199;-88
2022/03/20 03:42:46;;;;;;;30.30;17.47;;;1.80;89.80;;;;;;5035431;28;20289;-88
2022/03/20 03:45:12;;;;;;;22.07;13.97;;;1.80;89.60;;;;;;5017880;28;20345;-87
2022/03/20 03:47:40;;;;;;;9.93;7.00;;;1.80;89.60;;;;;;5018047;28;20209;-87
2022/03/20 03:50:09;;;;;;;14.10;9.13;;;1.80;89.40;;;;;;5035476;28;20177;-88
2022/03/20 03:52:36;;;;;;;18.63;10.90;;;1.80;89.00;;;;;;5035307;28;20226;-88
2022/03/20 03:55:02;;;;;;;25.03;11.20;;;1.80;88.80;;;;;;5035329;28;20253;-87
2022/03/20 03:57:28;;;;;;;26.80;13.33;;;1.90;88.60;;;;;;5035243;28;20220;-88
2022/03/20 03:59:54;;;;;;;18.17;11.80;;;1.80;88.40;;;;;;5035241;28;20220;-88
2022/03/20 04:02:19;;;;;;;20.00;11.97;;;1.90;88.40;;;;;;5035522;28;20189;-88
2022/03/20 04:04:47;;;;;;;21.27;14.53;;;1.90;88.30;;;;;;5017563;28;20182;-87
2022/03/20 04:07:18;;;;;;;19.10;12.23;;;1.80;88.30;;;;;;5017605;28;20180;-87
2022/03/20 04:09:44;;;;;;;19.10;10.63;;;1.80;88.20;;;;;;5017533;28;20177;-89
2022/03/20 04:12:14;;;;;;;16.30;10.17;;;1.90;88.00;;;;;;5017381;28;20202;-88
2022/03/20 04:14:40;;;;;;;13.57;9.53;;;1.90;87.80;;;;;;5035643;28;20178;-87
2022/03/20 04:17:06;;;;;;;22.90;10.27;;;1.80;87.70;;;;;;5017274;28;20234;-87
2022/03/20 04:19:32;;;;;;;25.03;14.80;;;1.80;87.70;;;;;;5035106;28;20197;-87
2022/03/20 04:21:59;;;;;;;18.10;8.57;;;1.80;87.70;;;;;;5035098;28;20200;-88
2022/03/20 04:24:24;;;;;;;19.90;12.03;;;1.80;87.80;;;;;;5034885;28;20179;-88
2022/03/20 04:26:50;;;;;;;16.20;10.30;;;1.80;87.80;;;;;;5016952;28;20175;-87
2022/03/20 04:29:15;;;;;;;17.77;11.07;;;1.80;87.80;;;;;;5017113;28;20275;-88
2022/03/20 04:31:41;;;;;;;8.73;7.30;;;1.80;87.80;;;;;;5016948;28;20307;-87
2022/03/20 04:34:06;;;;;;;23.90;15.40;;;1.80;87.80;;;;;;5016978;28;20209;-88
2022/03/20 04:36:34;;;;;;;17.33;12.00;;;1.80;87.50;;;;;;5017075;28;20264;-88
2022/03/20 04:39:01;;;;;;;22.17;13.40;;;1.80;87.50;;;;;;5016847;28;20204;-88
2022/03/20 04:41:27;;;;;;;17.10;11.20;;;1.70;87.50;;;;;;5034354;28;20587;-87
2022/03/20 04:43:53;;;;;;;15.13;8.70;;;1.70;87.70;;;;;;5016693;28;20174;-87
2022/03/20 04:46:19;;;;;;;19.63;11.50;;;1.80;87.70;;;;;;5034386;28;20197;-87
2022/03/20 04:59:44;;;;;;;17.43;10.47;;;1.60;87.20;;;;;;5034485;28;20189;-87
2022/03/20 05:02:10;;;;;;;20.67;12.73;;;1.60;87.10;;;;;;5016403;28;20196;-87
2022/03/20 05:04:37;;;;;;;15.30;9.63;;;1.60;86.90;;;;;;5016535;28;20261;-87
2022/03/20 05:07:06;;;;;;;11.53;7.60;;;1.70;86.90;;;;;;5034279;28;20171;-87
2022/03/20 05:15:10;;;;;;;21.27;12.10;;;1.70;86.50;;;;;;5034741;28;20170;-88
2022/03/20 05:17:36;;;;;;;14.07;8.13;;;1.60;86.40;;;;;;5016669;28;20246;-87
2022/03/20 05:20:03;;;;;;;26.27;11.87;;;1.60;86.40;;;;;;5016803;28;20553;-87
2022/03/20 05:22:30;;;;;;;20.63;12.80;;;1.60;86.30;;;;;;5033988;28;20197;-88
2022/03/20 05:24:57;;;;;;;8.47;6.40;;;1.60;86.30;;;;;;5016333;28;20557;-87
2022/03/20 05:27:22;;;;;;;10.57;7.13;;;1.60;86.20;;;;;;5033849;28;20196;-87
2022/03/20 05:29:48;;;;;;;20.73;13.33;;;1.60;86.30;;;;;;5016149;28;20193;-88
2022/03/20 05:32:14;;;;;;;21.57;11.77;;;1.50;86.20;;;;;;5015961;28;20621;-86
2022/03/20 05:34:39;;;;;;;12.20;8.40;;;1.50;86.30;;;;;;5016054;28;20178;-88
2022/03/20 05:37:07;;;;;;;18.60;12.10;;;1.60;86.10;;;;;;5033665;28;20174;-87
2022/03/20 05:39:33;;;;;;;15.67;10.40;;;1.50;86.00;;;;;;5015787;28;20237;-87
2022/03/20 05:41:59;;;;;;;16.77;10.90;;;1.50;86.00;;;;;;5015679;28;20231;-87
2022/03/20 05:44:26;;;;;;;17.80;12.17;;;1.60;85.70;;;;;;5016493;28;20178;-87
2022/03/20 05:46:53;;;;;;;14.67;10.97;;;1.50;85.60;;;;;;5033548;28;20172;-87
2022/03/20 05:49:21;;;;;;;19.57;11.10;;;1.50;85.60;;;;;;5033523;28;20219;-86
2022/03/20 05:51:47;;;;;;;14.47;9.60;;;1.70;85.30;;;;;;5016261;28;20199;-87
2022/03/20 05:54:15;;;;;;;16.97;12.50;;;1.70;84.90;;;;;;5015702;28;20182;-87
2022/03/20 05:59:26;;;;;;;18.93;11.17;;;1.70;85.00;;;;;;5033999;28;20570;-87
2022/03/20 06:01:52;;;;;;;13.70;8.27;;;1.70;84.80;;;;;;5033090;28;20195;-87
2022/03/20 06:04:18;;;;;;;18.97;9.30;;;1.80;84.60;;;;;;5033074;28;20169;-87
2022/03/20 06:06:44;;;;;;;12.43;7.97;;;1.80;84.30;;;;;;5015561;28;20597;-87
2022/03/20 06:09:09;;;;;;;10.23;6.93;;;1.80;83.90;;;;;;5033304;28;20174;-87
2022/03/20 06:11:35;;;;;;;11.93;9.40;;;1.90;83.80;;;;;;5015520;28;20576;-87
2022/03/20 06:14:04;;;;;;;10.10;6.63;;;1.90;83.50;;;;;;5015790;28;20177;-87
2022/03/20 06:16:31;;;;;;;10.53;7.10;;;2.00;82.90;;;;;;5033244;28;20182;-87
2022/03/20 06:18:57;;;;;;;18.47;13.30;;;2.00;83.10;;;;;;5033486;28;20311;-86
2022/03/20 06:21:23;;;;;;;22.07;9.00;;;2.10;82.90;;;;;;5015457;28;20226;-87
2022/03/20 06:23:49;;;;;;;9.93;7.00;;;2.10;82.70;;;;;;5033189;28;20212;-87
2022/03/20 06:26:17;;;;;;;12.67;9.00;;;2.20;82.10;;;;;;5033382;28;20174;-87
2022/03/20 06:28:43;;;;;;;20.97;10.63;;;2.20;82.30;;;;;;5033305;28;20288;-87
2022/03/20 06:31:12;;;;;;;14.23;10.50;;;2.30;81.50;;;;;;5015337;28;20709;-87
2022/03/20 06:33:39;;;;;;;12.53;8.53;;;2.30;81.50;;;;;;5033438;28;20549;-86
2022/03/20 06:36:05;;;;;;;15.77;10.33;;;2.30;81.30;;;;;;5033052;28;20175;-87
2022/03/20 06:38:33;;;;;;;13.63;6.80;;;2.40;80.80;;;;;;5033025;28;20170;-86
2022/03/20 06:40:59;;;;;;;13.00;9.00;;;2.50;80.30;;;;;;5015094;28;20223;-87
2022/03/20 06:43:25;;;;;;;17.03;10.03;;;2.50;80.70;;;;;;5039415;22;20294;-88
2022/03/20 06:45:53;;;;;;;14.57;9.33;;;2.60;80.50;;;;;;5014927;28;20532;-88
2022/03/20 06:48:19;;;;;;;10.57;6.93;;;2.60;79.90;;;;;;5014913;28;20191;-88
2022/03/20 06:50:44;;;;;;;11.90;7.90;;;2.70;79.50;;;;;;5015230;28;20187;-88
2022/03/20 06:53:11;;;;;;;12.77;9.73;;;2.80;78.60;;;;;;5014939;28;20314;-87
2022/03/20 06:55:37;;;;;;;17.30;7.43;;;2.80;78.60;;;;;;5014789;28;20173;-88
2022/03/20 06:58:03;;;;;;;11.23;7.23;;;2.80;78.40;;;;;;5014811;28;20174;-87
2022/03/20 07:00:29;;;;;;;19.40;9.77;;;2.90;77.90;;;;;;5014652;28;20198;-88
2022/03/20 07:03:00;;;;;;;12.80;8.77;;;3.00;77.90;;;;;;5014823;28;20215;-88
2022/03/20 07:05:26;;;;;;;14.97;8.67;;;3.00;76.90;;;;;;5015290;28;20191;-88
2022/03/20 07:07:52;;;;;;;11.83;9.03;;;3.10;77.00;;;;;;5014817;28;20555;-88
2022/03/20 07:10:22;;;;;;;9.50;6.73;;;3.20;76.30;;;;;;5016055;28;20229;-88
2022/03/20 07:12:50;;;;;;;13.33;9.20;;;3.20;76.20;;;;;;5014723;28;20689;-88
2022/03/20 07:15:18;;;;;;;23.47;11.50;;;3.30;76.10;;;;;;5016425;28;20184;-88
2022/03/20 07:17:44;;;;;;;15.90;7.97;;;3.30;76.20;;;;;;5035841;28;20294;-88
2022/03/20 07:20:10;;;;;;;20.33;10.20;;;3.50;75.50;;;;;;5018016;28;20201;-88
2022/03/20 07:22:36;;;;;;;15.77;8.30;;;3.50;74.70;;;;;;5018029;28;20275;-88
2022/03/20 07:30:32;;;;;;;13.77;7.47;;;3.70;72.80;;;;;;5036282;28;20540;-87
2022/03/20 07:32:57;;;;;;;12.10;8.50;;;3.80;72.70;;;;;;5035485;28;20188;-87
2022/03/20 07:35:24;;;;;;;23.80;15.40;;;3.90;72.50;;;;;;5017998;28;20180;-88
2022/03/20 07:37:50;;;;;;;8.90;6.40;;;4.00;72.40;;;;;;5017774;28;20559;-88
2022/03/20 07:40:16;;;;;;;15.47;9.67;;;4.10;71.60;;;;;;5018197;28;20223;-87
2022/03/20 07:42:42;;;;;;;15.80;8.37;;;4.20;69.80;;;;;;5017534;28;20662;-87
2022/03/20 07:45:09;;;;;;;9.87;6.10;;;4.30;70.30;;;;;;5018506;28;20177;-87
2022/03/20 07:47:35;;;;;;;12.77;8.23;;;4.30;69.20;;;;;;5017779;28;20176;-88
2022/03/20 07:50:04;;;;;;;15.30;9.77;;;4.40;68.60;;;;;;5018001;28;20181;-88
2022/03/20 07:52:29;;;;;;;20.30;13.23;;;4.50;67.50;;;;;;5017492;28;20186;-88
2022/03/20 07:54:55;;;;;;;20.77;14.77;;;4.60;69.00;;;;;;5017515;28;20390;-88
2022/03/20 07:57:20;;;;;;;12.30;7.07;;;4.70;67.90;;;;;;5017523;28;20185;-88
2022/03/20 07:59:47;;;;;;;20.17;10.93;;;4.80;66.50;;;;;;5035016;28;20215;-89
2022/03/20 08:02:12;;;;;;;21.43;14.53;;;4.90;66.50;;;;;;5035017;28;20270;-90
2022/03/20 08:04:40;;;;;;;10.50;5.63;;;5.00;66.10;;;;;;5035240;28;20216;-90
2022/03/20 08:07:06;;;;;;;8.47;6.43;;;5.00;64.20;;;;;;5017583;28;20180;-91
2022/03/20 08:09:32;;;;;;;19.40;10.57;;;5.20;64.20;;;;;;5034880;28;20197;-90
2022/03/20 08:11:58;;;;;;;14.43;8.80;;;5.30;64.40;;;;;;5034961;28;20234;-90
2022/03/20 08:14:23;;;;;;;19.60;13.17;;;5.40;62.50;;;;;;5035212;28;20194;-89
2022/03/20 08:16:50;;;;;;;13.33;9.60;;;5.50;62.70;;;;;;5017088;28;20191;-89
2022/03/20 08:19:19;;;;;;;13.40;9.67;;;5.70;61.10;;;;;;5034690;28;20194;-90
2022/03/20 08:21:47;;;;;;;18.20;11.87;;;5.80;60.80;;;;;;5035010;28;20647;-88
2022/03/20 08:24:14;;;;;;;6.03;5.20;;;5.90;60.30;;;;;;5017045;28;20204;-88
2022/03/20 08:26:40;;;;;;;10.53;7.77;;;5.90;57.30;;;;;;5016435;28;20173;-89
2022/03/20 08:29:10;;;;;;;15.77;9.57;;;6.00;57.70;;;;;;5034519;28;20612;-88
2022/03/20 08:31:36;;;;;;;14.87;6.07;;;6.10;56.40;;;;;;5017652;28;20170;-88
2022/03/20 08:34:02;;;;;;;20.67;5.47;;;6.20;55.30;;;;;;5034639;28;20194;-88
2022/03/20 08:36:27;;;;;;;19.13;11.00;;;6.20;55.40;;;;;;5016629;28;20175;-88
2022/03/20 08:38:53;;;;;;;12.93;7.07;;;6.30;56.40;;;;;;5034230;28;20589;-88
2022/03/20 08:41:19;;;;;;;12.67;9.00;;;6.30;53.80;;;;;;5016660;28;20543;-88
2022/03/20 08:43:45;;;;;;;12.70;7.67;;;6.40;54.90;;;;;;5016351;28;20697;-88
2022/03/20 08:46:10;;;;;;;20.57;7.97;;;6.50;54.10;;;;;;5016458;28;20175;-88
2022/03/20 08:48:36;;;;;;;11.57;7.47;;;6.70;54.50;;;;;;5016504;28;20242;-88
2022/03/20 08:51:02;;;;;;;19.97;12.27;;;6.80;53.80;;;;;;5016697;28;20183;-88
2022/03/20 08:53:27;;;;;;;9.37;6.27;;;6.70;52.90;;;;;;5016333;28;20200;-88
2022/03/20 08:55:53;;;;;;;16.50;10.10;;;6.70;50.60;;;;;;5034356;28;20298;-89
2022/03/20 08:58:18;;;;;;;7.67;5.60;;;6.80;53.30;;;;;;5033946;28;20259;-89
2022/03/20 09:00:45;;;;;;;19.13;8.20;;;6.90;52.00;;;;;;5016227;28;20303;-89
2022/03/20 09:03:11;;;;;;;10.80;7.13;;;7.00;51.90;;;;;;5034149;28;20203;-88
2022/03/20 09:05:37;;;;;;;18.67;12.43;;;7.00;51.50;;;;;;5016928;28;20541;-88
2022/03/20 09:08:04;;;;;;;7.90;5.67;;;7.10;51.60;;;;;;5016038;28;20196;-88
2022/03/20 09:10:30;;;;;;;13.63;6.10;;;7.20;50.20;;;;;;5033839;28;20234;-89
2022/03/20 09:12:57;;;;;;;15.53;9.67;;;7.20;50.30;;;;;;5016036;28;20208;-88
2022/03/20 09:15:24;;;;;;;6.13;5.53;;;7.30;50.30;;;;;;5016030;28;20181;-88
2022/03/20 09:20:36;;;;;;;19.77;9.23;;;7.50;50.90;;;;;;5034025;28;20222;-88
2022/03/20 09:23:03;;;;;;;20.83;12.37;;;7.60;50.30;;;;;;5033583;28;20204;-88
2022/03/20 09:25:29;;;;;;;19.57;10.23;;;7.70;49.20;;;;;;5015886;28;20177;-88
2022/03/20 09:27:54;;;;;;;20.37;13.13;;;7.90;49.40;;;;;;5033495;28;20227;-89
2022/03/20 09:30:23;;;;;;;11.20;8.67;;;8.00;49.50;;;;;;5015767;28;20651;-88
2022/03/20 09:32:49;;;;;;;21.07;10.80;;;8.10;51.00;;;;;;5015635;28;20201;-88
2022/03/20 09:35:16;;;;;;;25.40;14.60;;;8.00;48.80;;;;;;5015760;28;20187;-89
2022/03/20 09:37:42;;;;;;;20.13;12.87;;;8.00;49.10;;;;;;5015816;28;20262;-88
2022/03/20 09:40:12;;;;;;;16.20;10.30;;;8.30;51.80;;;;;;5033252;28;20235;-88
2022/03/20 09:42:37;;;;;;;7.40;5.57;;;8.40;48.50;;;;;;5033090;28;20179;-89
2022/03/20 09:45:05;;;;;;;11.27;7.90;;;8.30;48.00;;;;;;5033327;28;20605;-88
2022/03/20 09:47:39;;;;;;;19.33;12.10;;;8.40;47.80;;;;;;5015532;28;20177;-89
2022/03/20 09:50:05;;;;;;;18.17;10.53;;;8.40;49.00;;;;;;5015499;28;20169;-89
2022/03/20 09:52:31;;;;;;;15.13;9.80;;;8.50;47.40;;;;;;5015477;28;20177;-88
2022/03/20 09:55:00;;;;;;;9.77;7.90;;;8.70;47.80;;;;;;5015553;28;20187;-89
2022/03/20 09:57:29;;;;;;;11.30;7.57;;;8.80;47.10;;;;;;5015517;28;20200;-88
2022/03/20 10:00:01;;;;;;;19.03;12.30;;;8.80;47.10;;;;;;5015628;28;20207;-87
2022/03/20 10:02:28;;;;;;;19.97;12.87;;;8.90;48.30;;;;;;5032968;28;20653;-88
2022/03/20 10:05:07;;;;;;;16.00;10.70;;;9.00;46.80;;;;;;5032822;28;20175;-89
2022/03/20 10:07:40;;;;;;;29.90;13.37;;;9.00;46.00;;;;;;5015231;28;20168;-88
2022/03/20 10:10:22;;;;;;;16.63;10.43;;;9.30;46.90;;;;;;5015157;28;20669;-88
2022/03/20 10:12:52;;;;;;;19.67;11.50;;;9.30;47.00;;;;;;5015178;28;20200;-89
2022/03/20 10:15:34;;;;;;;20.90;12.67;;;9.20;45.60;;;;;;5015573;28;20187;-89
2022/03/20 10:18:20;;;;;;;17.87;12.17;;;9.40;46.80;;;;;;5015114;28;20192;-88
2022/03/20 10:20:51;;;;;;;16.30;8.33;;;9.60;47.40;;;;;;5015597;28;20200;-89
2022/03/20 10:23:46;;;;;;;18.13;12.50;;;9.60;45.50;;;;;;5032645;28;20204;-88
2022/03/20 10:26:16;;;;;;;19.50;12.53;;;9.70;45.00;;;;;;5014876;28;20172;-89
2022/03/20 10:28:47;;;;;;;25.27;14.13;;;9.80;44.90;;;;;;5015470;28;20630;-90
2022/03/20 10:31:20;;;;;;;16.43;11.50;;;9.90;44.70;;;;;;5032947;28;20166;-89
2022/03/20 10:34:00;;;;;;;17.33;9.47;;;10.00;46.20;;;;;;5015084;28;20736;-89
2022/03/20 10:36:25;;;;;;;16.57;9.80;;;9.90;44.40;;;;;;5015074;28;20542;-88
2022/03/20 10:38:51;;;;;;;24.63;15.57;;;9.90;45.60;;;;;;5015061;28;20215;-89
2022/03/20 10:41:24;;;;;;;13.17;8.87;;;10.10;45.90;;;;;;5015963;28;20177;-89
2022/03/20 10:43:50;;;;;;;21.37;13.63;;;10.20;46.00;;;;;;5014799;28;20212;-89
2022/03/20 10:46:24;;;;;;;19.17;12.63;;;10.00;43.70;;;;;;5015851;28;20235;-89
2022/03/20 10:48:52;;;;;;;22.20;13.73;;;10.20;45.40;;;;;;5016469;28;20186;-89
2022/03/20 10:51:40;;;;;;;21.53;14.43;;;10.30;44.90;;;;;;5036609;28;20180;-89
2022/03/20 10:54:20;;;;;;;13.37;9.33;;;10.40;43.00;;;;;;5019502;28;20507;-89
2022/03/20 10:57:01;;;;;;;23.27;16.13;;;10.50;43.00;;;;;;5018551;28;20180;-89
2022/03/20 10:59:29;;;;;;;18.97;11.70;;;10.60;43.60;;;;;;5018424;28;20227;-89
2022/03/20 11:01:55;;;;;;;18.93;11.97;;;10.70;43.00;;;;;;5018847;28;20188;-90
2022/03/20 11:04:23;;;;;;;18.43;8.70;;;10.80;43.30;;;;;;5018446;28;20619;-87
2022/03/20 11:06:50;;;;;;;21.87;12.67;;;11.00;41.90;;;;;;5018572;28;20526;-89
2022/03/20 11:09:16;;;;;;;22.90;14.53;;;10.90;41.10;;;;;;5018210;28;20185;-87
2022/03/20 11:11:47;;;;;;;20.00;14.23;;;11.00;43.40;;;;;;5019137;28;20234;-86
2022/03/20 11:14:19;;;;;;;21.23;15.70;;;11.20;42.20;;;;;;5018654;28;20204;-86
2022/03/20 11:16:49;;;;;;;26.77;16.00;;;11.20;41.10;;;;;;5018134;28;20306;-88
2022/03/20 11:19:16;;;;;;;33.20;16.87;;;11.20;41.50;;;;;;5018030;28;20204;-88
2022/03/20 11:21:44;;;;;;;16.67;10.03;;;11.40;39.70;;;;;;5018146;28;20191;-88
2022/03/20 11:24:11;;;;;;;21.13;13.40;;;11.30;39.70;;;;;;5018295;28;20192;-88
2022/03/20 11:26:43;;;;;;;22.63;15.20;;;11.50;41.70;;;;;;5017966;28;20184;-87
2022/03/20 11:29:11;;;;;;;19.60;11.97;;;11.60;40.10;;;;;;5036088;28;20188;-88
2022/03/20 11:31:37;;;;;;;15.97;9.57;;;11.60;37.30;;;;;;5017951;28;20180;-87
2022/03/20 11:34:06;;;;;;;21.07;15.80;;;11.70;37.20;;;;;;5017872;28;20251;-88
2022/03/20 11:36:51;;;;;;;14.23;9.17;;;11.70;37.60;;;;;;5017912;28;20188;-87
2022/03/20 11:39:17;;;;;;;22.37;13.97;;;11.90;36.70;;;;;;5007512;28;20208;-90
2022/03/20 11:41:43;;;;;;;22.87;14.20;;;11.80;37.90;;;;;;5017826;28;20235;-86
2022/03/20 11:44:21;;;;;;;21.73;12.40;;;11.90;38.80;;;;;;5035259;28;20212;-89
2022/03/20 11:47:07;;;;;;;24.67;13.80;;;12.00;37.50;;;;;;5035570;28;20542;-89
2022/03/20 11:49:33;;;;;;;13.07;8.47;;;12.00;37.60;;;;;;5018305;28;20283;-89
2022/03/20 11:52:09;;;;;;;21.53;13.70;;;11.90;36.90;;;;;;5017619;28;20705;-89
2022/03/20 11:54:41;;;;;;;23.70;15.93;;;11.80;36.50;;;;;;5035247;28;20271;-89
2022/03/20 11:57:28;;;;;;;18.27;10.07;;;11.80;37.90;;;;;;5017864;28;20223;-90
2022/03/20 11:59:55;;;;;;;13.53;9.07;;;12.00;37.00;;;;;;5017053;28;20232;-90
2022/03/20 12:02:34;;;;;;;20.87;12.57;;;12.10;37.20;;;;;;5017225;28;20254;-89
2022/03/20 12:05:24;;;;;;;10.93;5.57;;;12.10;38.20;;;;;;5035536;28;20157;-89
2022/03/20 12:08:08;;;;;;;15.43;6.80;;;12.00;37.00;;;;;;5017796;28;20527;-89
2022/03/20 12:10:55;;;;;;;26.20;15.37;;;12.00;36.10;;;;;;5034890;28;20247;-90
2022/03/20 12:13:48;;;;;;;20.60;13.10;;;11.90;37.00;;;;;;5034888;28;20193;-90
2022/03/20 12:16:49;;;;;;;20.67;15.37;;;12.00;37.50;;;;;;5017074;28;20173;-89
2022/03/20 12:19:16;;;;;;;23.83;16.63;;;12.10;37.30;;;;;;5016979;28;20689;-90
2022/03/20 12:22:03;;;;;;;17.47;6.57;;;12.20;37.20;;;;;;5016952;28;20267;-90
2022/03/20 12:24:34;;;;;;;14.10;8.90;;;12.30;35.30;;;;;;5034842;28;20275;-89
2022/03/20 12:27:22;;;;;;;24.23;16.17;;;12.30;36.30;;;;;;5034786;28;20169;-89
2022/03/20 12:29:49;;;;;;;24.10;16.47;;;12.50;36.50;;;;;;5034548;28;20635;-89
2022/03/20 12:32:15;;;;;;;21.00;14.27;;;12.50;37.30;;;;;;5034381;28;20173;-89
2022/03/20 12:35:04;;;;;;;20.03;8.80;;;12.40;37.10;;;;;;5016827;28;20287;-89
2022/03/20 12:37:33;;;;;;;20.43;14.77;;;12.30;34.90;;;;;;5017269;28;20268;-89
2022/03/20 12:40:15;;;;;;;20.37;13.77;;;12.30;35.80;;;;;;5016576;28;20266;-89
2022/03/20 12:43:03;;;;;;;17.70;11.00;;;12.30;35.70;;;;;;5034052;28;20189;-90
2022/03/20 12:45:30;;;;;;;17.80;11.00;;;12.30;35.80;;;;;;5058819;22;20225;-87
2022/03/20 12:48:04;;;;;;;22.07;14.40;;;12.30;35.10;;;;;;5034646;28;20665;-88
2022/03/20 12:50:36;;;;;;;13.63;8.13;;;12.30;37.00;;;;;;5017205;28;20270;-87
2022/03/20 12:53:04;;;;;;;16.67;8.13;;;12.50;36.10;;;;;;5034670;28;20188;-88
2022/03/20 12:55:30;;;;;;;20.73;12.93;;;12.40;34.40;;;;;;5035199;28;20785;-88
2022/03/20 12:57:56;;;;;;;24.43;11.00;;;12.60;35.70;;;;;;5034585;28;20267;-87
2022/03/20 13:00:25;;;;;;;17.67;12.10;;;12.80;36.50;;;;;;5016727;28;20262;-87
2022/03/20 13:03:08;;;;;;;18.30;12.60;;;12.70;34.40;;;;;;5016939;28;20560;-87
2022/03/20 13:05:45;;;;;;;25.00;15.17;;;12.70;34.10;;;;;;5016746;28;20291;-88
2022/03/20 13:08:18;;;;;;;19.27;12.50;;;12.70;33.50;;;;;;5016994;28;20177;-87
2022/03/20 13:10:44;;;;;;;15.33;10.47;;;12.60;33.50;;;;;;5016505;28;20181;-87
2022/03/20 13:13:10;;;;;;;17.37;10.43;;;12.70;33.70;;;;;;5034724;28;20181;-87
2022/03/20 13:15:40;;;;;;;22.43;12.97;;;12.50;32.60;;;;;;5016542;28;20201;-87
2022/03/20 13:18:07;;;;;;;13.27;8.27;;;12.50;33.30;;;;;;5034399;28;20678;-87
2022/03/20 13:20:35;;;;;;;24.57;12.63;;;12.70;33.90;;;;;;5016776;28;20204;-87